Terminal Aerodrome Forecast
Issued by NWS

Current Version | Previous Version | Graphics & Text | Print | Product List | Glossary On
Versions: 1 2 3 4 5 6 7 8 9 10 11 12 13 14 15 16 17 18 19 20 21 22 23 24
149
FTUS41 KPBZ 160522
TAFMGW
TAF
KMGW 160522Z 1606/1706 00000KT P6SM OVC150
     FM161400 14003KT P6SM OVC025
     FM161800 14003KT P6SM OVC010=

USA.gov is the U.S. government's official web portal to all federal, state and local government web resources and services.